sensor_id;sensor_type;location;lat;lon;timestamp;temperature;humidity
16968;DHT22;64862;54.398;10.126;2023-02-02T00:07:04;6.60;99.90
16968;DHT22;64862;54.398;10.126;2023-02-02T00:17:09;6.60;99.90
16968;DHT22;64862;54.398;10.126;2023-02-02T00:27:13;6.60;99.90
16968;DHT22;64862;54.398;10.126;2023-02-02T00:37:17;6.60;99.90
16968;DHT22;64862;54.398;10.126;2023-02-02T00:47:20;6.40;99.90
16968;DHT22;64862;54.398;10.126;2023-02-02T00:57:24;6.10;99.90
16968;DHT22;64862;54.398;10.126;2023-02-02T01:07:27;6.00;99.90
16968;DHT22;64862;54.398;10.126;2023-02-02T01:17:33;5.80;99.90
16968;DHT22;64862;54.398;10.126;2023-02-02T01:27:35;5.80;99.90
16968;DHT22;64862;54.398;10.126;2023-02-02T01:37:50;5.80;99.90
16968;DHT22;64862;54.398;10.126;2023-02-02T01:47:54;5.70;99.90
16968;DHT22;64862;54.398;10.126;2023-02-02T01:58:03;5.50;99.90
16968;DHT22;64862;54.398;10.126;2023-02-02T02:08:14;5.50;99.90
16968;DHT22;64862;54.398;10.126;2023-02-02T02:18:27;5.70;99.90
16968;DHT22;64862;54.398;10.126;2023-02-02T02:28:55;5.60;99.90
16968;DHT22;64862;54.398;10.126;2023-02-02T02:39:07;5.40;99.90
16968;DHT22;64862;54.398;10.126;2023-02-02T02:49:15;5.40;99.90
16968;DHT22;64862;54.398;10.126;2023-02-02T02:59:27;5.40;99.90
16968;DHT22;64862;54.398;10.126;2023-02-02T03:09:36;5.50;99.90
16968;DHT22;64862;54.398;10.126;2023-02-02T03:19:43;5.60;99.90
16968;DHT22;64862;54.398;10.126;2023-02-02T03:29:45;5.60;99.90
16968;DHT22;64862;54.398;10.126;2023-02-02T03:39:49;5.50;99.90
16968;DHT22;64862;54.398;10.126;2023-02-02T03:49:51;5.40;99.90
16968;DHT22;64862;54.398;10.126;2023-02-02T03:59:55;5.40;99.90
16968;DHT22;64862;54.398;10.126;2023-02-02T04:09:57;5.60;99.90
16968;DHT22;64862;54.398;10.126;2023-02-02T04:20:00;5.90;99.90
16968;DHT22;64862;54.398;10.126;2023-02-02T04:30:03;5.80;99.90
16968;DHT22;64862;54.398;10.126;2023-02-02T04:40:11;5.60;99.90
16968;DHT22;64862;54.398;10.126;2023-02-02T04:50:13;5.20;99.90
16968;DHT22;64862;54.398;10.126;2023-02-02T05:00:18;5.00;99.90
16968;DHT22;64862;54.398;10.126;2023-02-02T05:10:20;4.90;99.90
16968;DHT22;64862;54.398;10.126;2023-02-02T05:20:24;4.90;99.90
16968;DHT22;64862;54.398;10.126;2023-02-02T05:30:27;5.10;99.90
16968;DHT22;64862;54.398;10.126;2023-02-02T05:40:31;5.50;99.90
16968;DHT22;64862;54.398;10.126;2023-02-02T05:50:33;5.60;99.90
16968;DHT22;64862;54.398;10.126;2023-02-02T06:00:39;5.70;99.90
16968;DHT22;64862;54.398;10.126;2023-02-02T06:10:41;5.90;99.90
16968;DHT22;64862;54.398;10.126;2023-02-02T06:20:45;6.00;99.90
16968;DHT22;64862;54.398;10.126;2023-02-02T06:30:47;5.80;99.90
16968;DHT22;64862;54.398;10.126;2023-02-02T06:40:51;5.70;99.90
16968;DHT22;64862;54.398;10.126;2023-02-02T06:50:57;5.40;99.90
16968;DHT22;64862;54.398;10.126;2023-02-02T07:01:09;5.30;99.90
16968;DHT22;64862;54.398;10.126;2023-02-02T07:11:12;5.20;99.90
16968;DHT22;64862;54.398;10.126;2023-02-02T07:21:17;5.00;99.90
16968;DHT22;64862;54.398;10.126;2023-02-02T07:31:23;5.10;99.90
16968;DHT22;64862;54.398;10.126;2023-02-02T07:41:27;5.00;99.90
16968;DHT22;64862;54.398;10.126;2023-02-02T07:51:29;5.30;99.90
16968;DHT22;64862;54.398;10.126;2023-02-02T08:01:32;5.60;99.90
16968;DHT22;64862;54.398;10.126;2023-02-02T08:11:35;5.70;99.90
16968;DHT22;64862;54.398;10.126;2023-02-02T08:21:39;5.80;99.90
16968;DHT22;64862;54.398;10.126;2023-02-02T08:31:43;6.50;99.90
16968;DHT22;64862;54.398;10.126;2023-02-02T08:41:46;6.60;99.90
16968;DHT22;64862;54.398;10.126;2023-02-02T08:51:48;6.90;99.90
16968;DHT22;64862;54.398;10.126;2023-02-02T09:01:52;9.50;99.90
16968;DHT22;64862;54.398;10.126;2023-02-02T09:11:55;8.70;99.90
16968;DHT22;64862;54.398;10.126;2023-02-02T09:21:59;7.80;99.90
16968;DHT22;64862;54.398;10.126;2023-02-02T09:32:01;7.90;99.90
16968;DHT22;64862;54.398;10.126;2023-02-02T09:42:32;8.00;99.90
16968;DHT22;64862;54.398;10.126;2023-02-02T09:52:40;8.20;99.90
16968;DHT22;64862;54.398;10.126;2023-02-02T10:02:46;8.90;99.90
16968;DHT22;64862;54.398;10.126;2023-02-02T10:12:53;7.70;99.90
16968;DHT22;64862;54.398;10.126;2023-02-02T10:23:04;10.20;99.90
16968;DHT22;64862;54.398;10.126;2023-02-02T10:33:14;12.00;99.90
16968;DHT22;64862;54.398;10.126;2023-02-02T10:43:32;11.20;99.90
16968;DHT22;64862;54.398;10.126;2023-02-02T10:53:50;13.80;99.90
16968;DHT22;64862;54.398;10.126;2023-02-02T11:03:58;11.40;99.90
16968;DHT22;64862;54.398;10.126;2023-02-02T11:14:29;11.10;99.90
16968;DHT22;64862;54.398;10.126;2023-02-02T11:24:42;13.00;99.90
16968;DHT22;64862;54.398;10.126;2023-02-02T11:34:46;10.10;99.90
16968;DHT22;64862;54.398;10.126;2023-02-02T11:44:51;9.00;99.90
16968;DHT22;64862;54.398;10.126;2023-02-02T11:54:56;8.80;99.90
16968;DHT22;64862;54.398;10.126;2023-02-02T12:15:40;8.00;99.90
16968;DHT22;64862;54.398;10.126;2023-02-02T12:26:10;7.80;99.90
16968;DHT22;64862;54.398;10.126;2023-02-02T12:36:25;7.80;99.90
16968;DHT22;64862;54.398;10.126;2023-02-02T12:46:54;7.60;99.90
16968;DHT22;64862;54.398;10.126;2023-02-02T12:57:01;7.80;99.90
16968;DHT22;64862;54.398;10.126;2023-02-02T13:07:14;7.70;99.90
16968;DHT22;64862;54.398;10.126;2023-02-02T13:17:25;7.70;99.90
16968;DHT22;64862;54.398;10.126;2023-02-02T13:27:30;7.90;99.90
16968;DHT22;64862;54.398;10.126;2023-02-02T13:37:38;7.90;99.90
16968;DHT22;64862;54.398;10.126;2023-02-02T13:47:48;7.90;99.90
16968;DHT22;64862;54.398;10.126;2023-02-02T13:58:13;8.00;99.90
16968;DHT22;64862;54.398;10.126;2023-02-02T14:08:19;8.00;99.90
16968;DHT22;64862;54.398;10.126;2023-02-02T14:18:55;8.10;99.90
16968;DHT22;64862;54.398;10.126;2023-02-02T14:29:00;7.90;99.90
16968;DHT22;64862;54.398;10.126;2023-02-02T14:39:10;7.90;99.90
16968;DHT22;64862;54.398;10.126;2023-02-02T14:49:23;7.70;99.90
16968;DHT22;64862;54.398;10.126;2023-02-02T14:59:30;7.60;99.90
16968;DHT22;64862;54.398;10.126;2023-02-02T15:09:37;7.50;99.90
16968;DHT22;64862;54.398;10.126;2023-02-02T15:19:44;7.40;99.90
16968;DHT22;64862;54.398;10.126;2023-02-02T15:29:52;7.20;99.90
16968;DHT22;64862;54.398;10.126;2023-02-02T15:39:58;7.00;99.90
16968;DHT22;64862;54.398;10.126;2023-02-02T15:50:16;6.60;99.90
16968;DHT22;64862;54.398;10.126;2023-02-02T16:00:25;6.40;99.90
16968;DHT22;64862;54.398;10.126;2023-02-02T16:10:30;6.10;99.90
16968;DHT22;64862;54.398;10.126;2023-02-02T16:20:33;5.90;99.90
16968;DHT22;64862;54.398;10.126;2023-02-02T16:30:38;5.50;99.90
16968;DHT22;64862;54.398;10.126;2023-02-02T16:40:41;5.20;99.90
16968;DHT22;64862;54.398;10.126;2023-02-02T16:50:45;5.20;99.90
16968;DHT22;64862;54.398;10.126;2023-02-02T17:00:57;4.90;99.90
16968;DHT22;64862;54.398;10.126;2023-02-02T17:11:21;4.70;99.90
16968;DHT22;64862;54.398;10.126;2023-02-02T17:21:24;4.50;99.90
16968;DHT22;64862;54.398;10.126;2023-02-02T17:31:28;4.50;99.90
16968;DHT22;64862;54.398;10.126;2023-02-02T17:41:31;4.40;99.90
16968;DHT22;64862;54.398;10.126;2023-02-02T17:51:35;4.40;99.90
16968;DHT22;64862;54.398;10.126;2023-02-02T18:01:42;4.50;99.90
16968;DHT22;64862;54.398;10.126;2023-02-02T18:11:47;4.50;99.90
16968;DHT22;64862;54.398;10.126;2023-02-02T18:21:49;4.50;99.90
16968;DHT22;64862;54.398;10.126;2023-02-02T18:31:53;4.60;99.90
16968;DHT22;64862;54.398;10.126;2023-02-02T18:41:56;5.20;99.90
16968;DHT22;64862;54.398;10.126;2023-02-02T18:52:00;5.40;99.90
16968;DHT22;64862;54.398;10.126;2023-02-02T19:02:02;5.60;99.90
16968;DHT22;64862;54.398;10.126;2023-02-02T19:12:12;5.70;99.90
16968;DHT22;64862;54.398;10.126;2023-02-02T19:22:18;5.90;99.90
16968;DHT22;64862;54.398;10.126;2023-02-02T19:32:23;5.90;99.90
16968;DHT22;64862;54.398;10.126;2023-02-02T19:42:30;6.00;99.90
16968;DHT22;64862;54.398;10.126;2023-02-02T19:52:34;6.00;99.90
16968;DHT22;64862;54.398;10.126;2023-02-02T20:02:50;6.00;99.90
16968;DHT22;64862;54.398;10.126;2023-02-02T20:12:56;6.10;99.90
16968;DHT22;64862;54.398;10.126;2023-02-02T20:22:58;6.00;99.90
16968;DHT22;64862;54.398;10.126;2023-02-02T20:33:18;6.00;99.90
16968;DHT22;64862;54.398;10.126;2023-02-02T20:43:25;6.10;99.90
16968;DHT22;64862;54.398;10.126;2023-02-02T20:53:32;6.00;99.90
16968;DHT22;64862;54.398;10.126;2023-02-02T21:03:34;5.90;99.90
16968;DHT22;64862;54.398;10.126;2023-02-02T21:13:39;5.80;99.90
16968;DHT22;64862;54.398;10.126;2023-02-02T21:23:41;5.70;99.90
16968;DHT22;64862;54.398;10.126;2023-02-02T21:33:48;5.70;99.90
16968;DHT22;64862;54.398;10.126;2023-02-02T21:43:52;5.60;99.90
16968;DHT22;64862;54.398;10.126;2023-02-02T21:53:56;5.50;99.90
16968;DHT22;64862;54.398;10.126;2023-02-02T22:03:59;5.50;99.90
16968;DHT22;64862;54.398;10.126;2023-02-02T22:14:15;5.30;99.90
16968;DHT22;64862;54.398;10.126;2023-02-02T22:24:18;5.30;99.90
16968;DHT22;64862;54.398;10.126;2023-02-02T22:34:21;5.20;99.90
16968;DHT22;64862;54.398;10.126;2023-02-02T22:44:23;5.20;99.90
16968;DHT22;64862;54.398;10.126;2023-02-02T22:54:27;5.10;99.90
16968;DHT22;64862;54.398;10.126;2023-02-02T23:04:30;5.10;99.90
16968;DHT22;64862;54.398;10.126;2023-02-02T23:14:34;5.10;99.90
16968;DHT22;64862;54.398;10.126;2023-02-02T23:24:37;5.10;99.90
16968;DHT22;64862;54.398;10.126;2023-02-02T23:34:41;5.00;99.90
16968;DHT22;64862;54.398;10.126;2023-02-02T23:44:43;5.10;99.90
16968;DHT22;64862;54.398;10.126;2023-02-02T23:54:47;5.10;99.90
